Time;durP1;ratioP1;P1;durP2;ratioP2;P2;SDS_P1;SDS_P2;PMS_P1;PMS_P2;Temp;Humidity;BMP_temperature;BMP_pressure;BME280_temperature;BME280_humidity;BME280_pressure;Samples;Min_cycle;Max_cycle;Signal;HPM_P1;HPM_P2
2023/05/03 00:01:46;;;;;;;0.60;0.60;;;15.90;98.10;;;;;;6128533;23;20385;-85
2023/05/03 00:04:15;;;;;;;0.70;0.70;;;15.90;98.20;;;;;;6128367;23;20374;-84
2023/05/03 00:06:43;;;;;;;0.60;0.60;;;15.80;98.60;;;;;;6125008;23;20750;-85
2023/05/03 00:09:11;;;;;;;0.52;0.52;;;15.90;98.90;;;;;;6125143;23;20376;-85
2023/05/03 00:11:37;;;;;;;0.60;0.60;;;15.80;98.80;;;;;;6123819;23;20375;-85
2023/05/03 00:14:04;;;;;;;0.70;0.70;;;15.80;98.80;;;;;;6124279;23;20411;-85
2023/05/03 00:16:31;;;;;;;0.63;0.63;;;15.80;99.00;;;;;;6124046;23;20443;-86
2023/05/03 00:18:58;;;;;;;0.70;0.50;;;15.80;98.80;;;;;;6124751;23;20378;-85
2023/05/03 00:21:25;;;;;;;0.63;0.63;;;15.80;98.60;;;;;;6123460;23;20372;-85
2023/05/03 00:23:52;;;;;;;0.60;0.60;;;15.80;98.60;;;;;;6125527;23;20439;-85
2023/05/03 00:26:21;;;;;;;0.50;0.50;;;15.80;98.60;;;;;;6125178;23;20419;-85
2023/05/03 00:28:48;;;;;;;1.00;0.63;;;15.80;98.90;;;;;;6124469;23;20380;-85
2023/05/03 00:31:14;;;;;;;0.95;0.52;;;15.80;99.30;;;;;;6124348;23;20379;-85
2023/05/03 00:33:41;;;;;;;0.70;0.60;;;15.70;99.80;;;;;;6126032;23;20854;-85
2023/05/03 00:36:10;;;;;;;0.77;0.70;;;15.70;99.90;;;;;;6122966;23;20446;-84
2023/05/03 00:38:38;;;;;;;0.70;0.70;;;15.70;99.90;;;;;;6124094;23;20404;-85
2023/05/03 00:41:06;;;;;;;1.45;0.80;;;15.60;99.90;;;;;;6123001;23;20762;-84
2023/05/03 00:43:34;;;;;;;0.60;0.60;;;15.50;99.90;;;;;;6123714;23;20379;-86
2023/05/03 00:46:03;;;;;;;0.90;0.70;;;15.50;99.90;;;;;;6125575;23;20545;-85
2023/05/03 00:48:43;;;;;;;0.80;0.68;;;15.40;99.90;;;;;;6123163;23;20387;-85
2023/05/03 00:51:13;;;;;;;0.60;0.60;;;15.40;99.90;;;;;;6124982;23;20396;-85
2023/05/03 00:53:41;;;;;;;0.70;0.70;;;15.30;99.90;;;;;;6123341;23;20379;-85
2023/05/03 00:56:10;;;;;;;0.95;0.70;;;15.30;99.90;;;;;;6123197;23;20480;-85
2023/05/03 00:58:38;;;;;;;1.00;0.90;;;15.30;99.90;;;;;;6123518;23;20372;-85
2023/05/03 01:01:06;;;;;;;0.75;0.70;;;15.20;99.90;;;;;;6123839;23;20419;-83
2023/05/03 17:52:53;;;;;;;0.40;0.30;;;21.70;50.00;;;;;;6118221;23;20394;-79
2023/05/03 17:55:20;;;;;;;0.50;0.40;;;21.60;51.00;;;;;;6124932;23;20405;-80
2023/05/03 17:57:50;;;;;;;0.20;0.20;;;21.50;52.00;;;;;;6125892;23;20385;-80
2023/05/03 18:00:18;;;;;;;0.80;0.20;;;21.40;52.60;;;;;;6127125;23;20782;-80
2023/05/03 18:02:44;;;;;;;0.45;0.20;;;21.30;53.00;;;;;;6120544;23;20383;-80
2023/05/03 18:05:12;;;;;;;0.50;0.30;;;21.10;53.60;;;;;;6097320;23;20487;-80
2023/05/03 18:07:39;;;;;;;1.00;0.40;;;21.10;54.40;;;;;;6122379;23;20896;-80
2023/05/03 18:10:06;;;;;;;0.70;0.40;;;21.00;55.30;;;;;;6096058;23;20409;-80
2023/05/03 18:12:33;;;;;;;0.30;0.30;;;20.90;56.10;;;;;;6096911;23;20706;-80
2023/05/03 18:15:00;;;;;;;0.35;0.30;;;20.70;56.80;;;;;;6096246;23;20395;-82
2023/05/03 18:17:30;;;;;;;0.33;0.30;;;20.60;57.40;;;;;;6097376;23;20383;-80
2023/05/03 18:19:57;;;;;;;1.23;0.30;;;20.50;57.80;;;;;;6095971;23;20758;-80
2023/05/03 18:22:26;;;;;;;0.60;0.30;;;20.40;58.40;;;;;;6097277;23;20403;-80
2023/05/03 18:24:54;;;;;;;0.30;0.20;;;20.30;59.00;;;;;;6096158;23;20430;-80
2023/05/03 18:27:21;;;;;;;0.30;0.30;;;20.20;59.30;;;;;;6096648;23;20504;-80
2023/05/03 18:29:50;;;;;;;0.40;0.40;;;20.10;59.80;;;;;;6095287;23;20403;-80
2023/05/03 18:32:17;;;;;;;0.65;0.40;;;20.00;60.50;;;;;;6097133;23;20439;-80
2023/05/03 18:34:44;;;;;;;0.30;0.30;;;19.90;60.80;;;;;;6096425;23;20376;-80
2023/05/03 18:37:11;;;;;;;0.63;0.40;;;19.80;61.70;;;;;;6096895;23;20372;-80
2023/05/03 18:39:38;;;;;;;0.40;0.37;;;19.80;62.10;;;;;;6097843;23;20372;-80
2023/05/03 18:42:05;;;;;;;0.30;0.30;;;19.70;62.20;;;;;;6096013;23;20502;-80
2023/05/03 18:44:32;;;;;;;0.50;0.40;;;19.60;62.30;;;;;;6097224;23;20410;-81
2023/05/03 18:47:01;;;;;;;0.60;0.50;;;19.50;62.90;;;;;;6095444;23;20466;-81
2023/05/03 18:49:28;;;;;;;0.40;0.35;;;19.40;63.00;;;;;;6097213;23;20376;-80
2023/05/03 18:51:54;;;;;;;0.52;0.40;;;19.30;63.20;;;;;;6096620;23;20364;-80
2023/05/03 18:54:21;;;;;;;1.00;0.50;;;19.20;63.00;;;;;;6122195;23;20763;-80
2023/05/03 18:56:48;;;;;;;0.50;0.50;;;19.20;63.20;;;;;;6096530;23;20434;-80
2023/05/03 18:59:15;;;;;;;1.50;0.63;;;19.10;63.20;;;;;;6096801;23;20399;-81
2023/05/03 19:01:42;;;;;;;0.90;0.52;;;19.00;63.40;;;;;;6097251;23;20376;-81
2023/05/03 19:04:09;;;;;;;0.63;0.50;;;18.90;64.20;;;;;;6096529;23;20398;-81
2023/05/03 19:06:36;;;;;;;0.73;0.60;;;18.90;65.30;;;;;;6097320;23;20395;-81
2023/05/03 19:09:03;;;;;;;0.93;0.70;;;18.90;69.00;;;;;;6096450;23;20451;-81
2023/05/03 19:11:29;;;;;;;1.00;0.70;;;18.80;69.70;;;;;;6097099;23;20760;-81
2023/05/03 19:13:56;;;;;;;1.00;0.60;;;18.80;72.30;;;;;;6096472;23;20692;-81
2023/05/03 19:16:23;;;;;;;1.00;0.60;;;18.80;73.10;;;;;;6097527;23;20431;-82
2023/05/03 19:18:50;;;;;;;1.60;0.70;;;18.70;71.70;;;;;;6096122;23;20431;-81
2023/05/03 19:21:18;;;;;;;0.93;0.60;;;18.80;71.30;;;;;;6097206;23;20371;-81
2023/05/03 19:23:45;;;;;;;1.00;0.70;;;18.70;70.30;;;;;;6097245;23;20404;-80
2023/05/03 19:26:12;;;;;;;1.83;0.60;;;18.70;69.60;;;;;;6096139;23;20443;-81
2023/05/03 19:28:39;;;;;;;1.00;0.68;;;18.70;69.30;;;;;;6122718;23;20399;-81
2023/05/03 19:31:06;;;;;;;0.52;0.50;;;18.70;68.90;;;;;;6096453;23;20383;-81
2023/05/03 19:33:33;;;;;;;0.80;0.60;;;18.60;68.80;;;;;;6097213;23;20394;-81
2023/05/03 19:36:05;;;;;;;0.68;0.50;;;18.60;69.00;;;;;;6096347;23;20404;-81
2023/05/03 19:38:34;;;;;;;0.55;0.40;;;18.60;69.20;;;;;;6122291;23;20706;-81
2023/05/03 19:41:10;;;;;;;0.68;0.40;;;18.60;69.10;;;;;;6095908;23;20375;-81
2023/05/03 19:43:38;;;;;;;0.40;0.30;;;18.60;68.80;;;;;;6123640;23;20447;-81
2023/05/03 19:46:06;;;;;;;1.27;0.40;;;18.50;68.50;;;;;;6097732;23;20695;-81
2023/05/03 19:48:33;;;;;;;1.30;0.40;;;18.50;68.70;;;;;;6098655;23;20411;-80
2023/05/03 19:51:01;;;;;;;0.82;0.30;;;18.50;68.60;;;;;;6097720;23;20383;-81
2023/05/03 19:53:28;;;;;;;0.43;0.43;;;18.50;68.70;;;;;;6093602;23;20385;-80
2023/05/03 19:55:56;;;;;;;0.43;0.30;;;18.40;69.30;;;;;;6117190;23;20696;-81
2023/05/03 19:58:24;;;;;;;0.35;0.35;;;18.40;69.00;;;;;;6093691;23;20377;-82
2023/05/03 20:00:52;;;;;;;0.93;0.30;;;18.40;69.40;;;;;;6092775;23;20438;-82
2023/05/03 20:03:21;;;;;;;0.60;0.38;;;18.30;69.60;;;;;;6093696;23;20405;-82
2023/05/03 20:05:49;;;;;;;0.40;0.40;;;18.30;70.20;;;;;;6093944;23;20449;-82
2023/05/03 20:08:16;;;;;;;0.90;0.50;;;18.30;70.60;;;;;;6092973;23;20448;-82
2023/05/03 20:10:43;;;;;;;0.40;0.32;;;18.30;71.40;;;;;;6093485;23;20432;-82
2023/05/03 20:13:12;;;;;;;0.43;0.40;;;18.30;72.20;;;;;;6092453;23;20385;-82
2023/05/03 20:15:40;;;;;;;0.77;0.70;;;18.20;73.20;;;;;;6093032;23;20394;-82
2023/05/03 20:18:07;;;;;;;1.50;0.50;;;18.20;73.10;;;;;;6092667;23;20370;-82
2023/05/03 20:20:35;;;;;;;0.65;0.40;;;18.20;72.30;;;;;;6094969;23;20855;-82
2023/05/03 20:23:02;;;;;;;0.40;0.30;;;18.20;71.50;;;;;;6092869;23;20425;-82
2023/05/03 20:25:29;;;;;;;0.88;0.30;;;18.20;70.80;;;;;;6093005;23;20366;-81
2023/05/03 20:27:56;;;;;;;0.85;0.40;;;18.20;70.60;;;;;;6092075;23;20417;-80
2023/05/03 20:30:23;;;;;;;0.35;0.30;;;18.10;70.50;;;;;;6093144;23;20448;-82
2023/05/03 20:32:50;;;;;;;0.52;0.32;;;18.10;69.70;;;;;;6093816;23;20382;-81
2023/05/03 20:35:20;;;;;;;0.38;0.30;;;18.10;69.40;;;;;;6091794;23;20377;-81
2023/05/03 20:37:46;;;;;;;0.63;0.20;;;18.10;69.40;;;;;;6093178;23;20386;-80
2023/05/03 20:40:14;;;;;;;0.32;0.22;;;18.10;70.00;;;;;;6093277;23;21908;-82
2023/05/03 20:42:41;;;;;;;0.50;0.40;;;18.10;70.60;;;;;;6093954;23;20381;-81
2023/05/03 20:45:08;;;;;;;0.30;0.30;;;18.10;71.00;;;;;;6092112;23;20378;-81
2023/05/03 20:47:35;;;;;;;1.15;0.40;;;18.10;71.70;;;;;;6094210;23;20878;-81
2023/05/03 20:50:02;;;;;;;0.90;0.30;;;18.10;73.40;;;;;;6092159;23;20368;-81
2023/05/03 20:52:29;;;;;;;0.43;0.30;;;18.10;72.30;;;;;;6095090;23;20369;-81
2023/05/03 20:54:57;;;;;;;0.30;0.20;;;18.10;72.00;;;;;;6122433;23;20387;-81
2023/05/03 20:57:24;;;;;;;1.20;0.30;;;18.00;71.90;;;;;;6097724;23;20376;-81
2023/05/03 20:59:51;;;;;;;0.30;0.20;;;18.00;72.30;;;;;;6097698;23;20714;-82
2023/05/03 21:02:18;;;;;;;0.50;0.30;;;18.00;73.30;;;;;;6097279;23;20368;-81
2023/05/03 21:04:45;;;;;;;0.30;0.30;;;18.00;73.80;;;;;;6097582;23;20406;-81
2023/05/03 21:07:12;;;;;;;0.30;0.30;;;17.90;74.90;;;;;;6096559;23;20380;-82
2023/05/03 21:09:38;;;;;;;0.47;0.30;;;17.90;75.30;;;;;;6097651;23;20383;-81
2023/05/03 21:12:05;;;;;;;0.30;0.30;;;17.90;76.20;;;;;;6096432;23;20955;-81
2023/05/03 21:14:32;;;;;;;0.90;0.30;;;17.80;77.00;;;;;;6097549;23;20380;-81
2023/05/03 21:17:00;;;;;;;0.37;0.20;;;17.80;77.70;;;;;;6096599;23;20458;-82
2023/05/03 21:19:27;;;;;;;1.10;0.30;;;17.70;78.70;;;;;;6123103;23;20703;-81
2023/05/03 21:21:54;;;;;;;0.70;0.20;;;17.70;78.30;;;;;;6097247;23;20447;-81
2023/05/03 21:24:23;;;;;;;0.30;0.20;;;17.70;78.60;;;;;;6096920;23;20718;-82
2023/05/03 21:26:50;;;;;;;0.30;0.20;;;17.60;78.60;;;;;;6097149;23;21276;-82
2023/05/03 21:29:17;;;;;;;0.50;0.25;;;17.50;79.80;;;;;;6096478;23;20454;-82
2023/05/03 21:31:44;;;;;;;0.30;0.20;;;17.40;79.40;;;;;;6097358;23;20499;-82
2023/05/03 21:34:11;;;;;;;0.60;0.40;;;17.40;79.50;;;;;;6122697;23;20375;-81
2023/05/03 21:36:38;;;;;;;0.47;0.32;;;17.30;79.70;;;;;;6097341;23;20375;-81
2023/05/03 21:39:05;;;;;;;1.00;0.57;;;17.20;79.30;;;;;;6096310;23;20376;-82
2023/05/03 21:41:32;;;;;;;1.37;0.73;;;17.20;79.30;;;;;;6095945;23;20730;-81
2023/05/03 21:44:01;;;;;;;1.35;0.80;;;17.10;79.40;;;;;;6095681;23;20415;-81
2023/05/03 21:46:28;;;;;;;1.60;0.73;;;17.00;79.80;;;;;;6097409;23;20398;-82
2023/05/03 21:48:55;;;;;;;1.17;0.70;;;16.90;80.00;;;;;;6097229;23;20467;-82
2023/05/03 21:51:24;;;;;;;0.98;0.70;;;16.90;80.90;;;;;;6096943;23;20403;-82
2023/05/03 21:53:51;;;;;;;1.60;0.75;;;16.80;81.40;;;;;;6097157;23;20458;-82
2023/05/03 21:56:18;;;;;;;1.90;0.70;;;16.70;81.50;;;;;;6096279;23;20378;-81
2023/05/03 21:58:45;;;;;;;0.85;0.60;;;16.70;83.00;;;;;;6096813;23;20447;-82
2023/05/03 22:01:16;;;;;;;0.65;0.50;;;16.60;83.10;;;;;;6096427;23;20399;-81
2023/05/03 22:03:43;;;;;;;0.65;0.47;;;16.50;83.60;;;;;;6097465;23;20376;-82
2023/05/03 22:06:10;;;;;;;0.70;0.50;;;16.50;83.90;;;;;;6096195;23;20699;-82
2023/05/03 22:08:37;;;;;;;1.23;0.70;;;16.40;85.20;;;;;;6096315;23;20446;-82
2023/05/03 22:11:07;;;;;;;0.47;0.40;;;16.40;85.20;;;;;;6096092;23;20383;-82
2023/05/03 22:13:37;;;;;;;0.70;0.50;;;16.30;87.90;;;;;;6097167;23;20407;-82
2023/05/03 22:16:20;;;;;;;0.82;0.60;;;16.30;89.50;;;;;;6099867;23;20875;-82
2023/05/03 22:18:47;;;;;;;0.70;0.50;;;16.20;91.10;;;;;;6096847;23;20937;-83
2023/05/03 22:21:15;;;;;;;1.15;0.40;;;16.20;91.70;;;;;;6097062;23;20406;-82
2023/05/03 22:23:42;;;;;;;0.70;0.47;;;16.10;92.30;;;;;;6097197;23;20376;-82
2023/05/03 22:26:09;;;;;;;1.02;0.70;;;16.10;92.90;;;;;;6096998;23;20787;-83
2023/05/03 22:28:35;;;;;;;0.80;0.50;;;16.10;92.90;;;;;;6096850;23;20454;-82
2023/05/03 22:31:02;;;;;;;0.55;0.50;;;16.10;94.50;;;;;;6096959;23;20702;-82
2023/05/03 22:33:29;;;;;;;0.95;0.50;;;16.10;93.90;;;;;;6096991;23;20831;-82
2023/05/03 22:35:56;;;;;;;0.90;0.50;;;16.10;95.20;;;;;;6097207;23;20406;-82
2023/05/03 22:38:23;;;;;;;0.52;0.40;;;16.10;94.80;;;;;;6096011;23;20418;-82
2023/05/03 22:40:50;;;;;;;0.55;0.40;;;16.10;94.70;;;;;;6097184;23;20376;-83
2023/05/03 22:43:17;;;;;;;0.63;0.40;;;16.10;95.20;;;;;;6096692;23;20731;-83
2023/05/03 22:45:44;;;;;;;0.35;0.30;;;16.10;94.70;;;;;;6097278;23;20733;-83
2023/05/03 22:48:11;;;;;;;0.43;0.40;;;16.10;94.00;;;;;;6096475;23;20699;-82
2023/05/03 22:50:38;;;;;;;0.63;0.47;;;16.10;93.70;;;;;;6097042;23;20372;-83
2023/05/03 22:53:05;;;;;;;0.63;0.50;;;16.10;94.00;;;;;;6096579;23;20379;-83
2023/05/03 22:55:32;;;;;;;0.45;0.40;;;16.20;93.80;;;;;;6121023;23;20836;-82
2023/05/03 22:57:59;;;;;;;0.70;0.38;;;16.20;93.70;;;;;;6097714;23;20403;-82
2023/05/03 23:00:26;;;;;;;0.40;0.30;;;16.20;93.40;;;;;;6095384;23;20695;-82
2023/05/03 23:02:53;;;;;;;0.35;0.35;;;16.20;93.50;;;;;;6097716;23;20397;-83
2023/05/03 23:05:21;;;;;;;0.45;0.40;;;16.20;93.40;;;;;;6096441;23;20841;-82
2023/05/03 23:07:47;;;;;;;0.52;0.40;;;16.20;93.60;;;;;;6097359;23;20407;-82
2023/05/03 23:10:14;;;;;;;0.90;0.50;;;16.30;94.00;;;;;;6095638;23;20414;-82
2023/05/03 23:12:41;;;;;;;0.68;0.32;;;16.30;94.10;;;;;;6097251;23;20371;-81
2023/05/03 23:15:09;;;;;;;0.88;0.30;;;16.30;94.30;;;;;;6096194;23;20470;-84
2023/05/03 23:17:36;;;;;;;0.40;0.40;;;16.30;94.20;;;;;;6122889;23;20444;-82
2023/05/03 23:20:04;;;;;;;0.90;0.50;;;16.30;94.90;;;;;;6098906;23;20387;-82
2023/05/03 23:22:31;;;;;;;0.40;0.32;;;16.30;94.60;;;;;;6098331;23;20371;-82
2023/05/03 23:24:58;;;;;;;0.32;0.30;;;16.30;94.50;;;;;;6099552;23;20410;-82
2023/05/03 23:27:25;;;;;;;0.50;0.40;;;16.30;94.30;;;;;;6098201;23;20375;-82
2023/05/03 23:29:53;;;;;;;0.60;0.40;;;16.30;94.90;;;;;;6099075;23;20458;-82
2023/05/03 23:32:20;;;;;;;0.38;0.30;;;16.40;94.60;;;;;;6098282;23;20861;-81
2023/05/03 23:34:48;;;;;;;0.35;0.35;;;16.40;94.40;;;;;;6124775;23;20376;-81
2023/05/03 23:37:14;;;;;;;0.45;0.30;;;16.40;94.60;;;;;;6098300;23;20434;-81
2023/05/03 23:39:45;;;;;;;0.40;0.30;;;16.40;95.40;;;;;;6098965;23;20762;-81
2023/05/03 23:42:12;;;;;;;0.40;0.30;;;16.40;95.50;;;;;;6098213;23;20434;-81
2023/05/03 23:44:39;;;;;;;1.00;0.30;;;16.40;95.50;;;;;;6098868;23;20750;-82
2023/05/03 23:47:19;;;;;;;0.60;0.30;;;16.40;96.10;;;;;;6100838;23;20395;-81
2023/05/03 23:49:46;;;;;;;0.40;0.30;;;16.40;98.20;;;;;;6098810;23;20407;-81
2023/05/03 23:52:15;;;;;;;0.60;0.40;;;16.40;98.20;;;;;;6097907;23;20383;-81
2023/05/03 23:54:42;;;;;;;0.68;0.30;;;16.40;99.90;;;;;;6098290;23;20407;-81
2023/05/03 23:57:09;;;;;;;0.30;0.30;;;16.40;99.20;;;;;;6098537;23;20467;-81
2023/05/03 23:59:36;;;;;;;0.53;0.30;;;16.30;99.70;;;;;;6096907;23;20386;-81
